sensor_id;sensor_type;location;lat;lon;timestamp;temperature;humidity
3023;DHT22;1521;53.584;9.938;2023-06-26T00:00:14;20.50;99.90
3023;DHT22;1521;53.584;9.938;2023-06-26T00:02:40;20.50;99.90
3023;DHT22;1521;53.584;9.938;2023-06-26T00:05:06;20.50;99.90
3023;DHT22;1521;53.584;9.938;2023-06-26T00:07:32;20.40;99.90
3023;DHT22;1521;53.584;9.938;2023-06-26T00:10:00;20.40;99.90
3023;DHT22;1521;53.584;9.938;2023-06-26T00:12:26;20.30;99.90
3023;DHT22;1521;53.584;9.938;2023-06-26T00:14:52;20.30;99.90
3023;DHT22;1521;53.584;9.938;2023-06-26T00:17:18;20.20;99.90
3023;DHT22;1521;53.584;9.938;2023-06-26T00:19:43;20.20;99.90
3023;DHT22;1521;53.584;9.938;2023-06-26T00:22:09;20.10;99.90
3023;DHT22;1521;53.584;9.938;2023-06-26T00:24:34;20.10;99.90
3023;DHT22;1521;53.584;9.938;2023-06-26T00:27:00;20.00;99.90
3023;DHT22;1521;53.584;9.938;2023-06-26T00:29:26;20.00;1.00
3023;DHT22;1521;53.584;9.938;2023-06-26T00:31:51;20.00;1.00
3023;DHT22;1521;53.584;9.938;2023-06-26T00:34:17;19.90;1.00
3023;DHT22;1521;53.584;9.938;2023-06-26T00:36:43;19.90;1.00
3023;DHT22;1521;53.584;9.938;2023-06-26T00:39:09;19.90;1.00
3023;DHT22;1521;53.584;9.938;2023-06-26T00:41:36;19.90;1.00
3023;DHT22;1521;53.584;9.938;2023-06-26T00:44:02;19.90;1.00
3023;DHT22;1521;53.584;9.938;2023-06-26T00:46:28;19.90;1.00
3023;DHT22;1521;53.584;9.938;2023-06-26T00:48:55;19.90;1.00
3023;DHT22;1521;53.584;9.938;2023-06-26T00:51:21;19.90;1.00
3023;DHT22;1521;53.584;9.938;2023-06-26T00:53:47;19.90;1.00
3023;DHT22;1521;53.584;9.938;2023-06-26T00:56:15;19.90;1.00
3023;DHT22;1521;53.584;9.938;2023-06-26T00:58:40;19.80;21.40
3023;DHT22;1521;53.584;9.938;2023-06-26T01:01:06;19.80;1.00
3023;DHT22;1521;53.584;9.938;2023-06-26T01:03:34;19.80;1.00
3023;DHT22;1521;53.584;9.938;2023-06-26T01:06:00;19.80;1.00
3023;DHT22;1521;53.584;9.938;2023-06-26T01:08:27;19.80;1.00
3023;DHT22;1521;53.584;9.938;2023-06-26T01:10:53;19.80;7.40
3023;DHT22;1521;53.584;9.938;2023-06-26T01:13:19;19.80;12.60
3023;DHT22;1521;53.584;9.938;2023-06-26T01:15:46;19.80;11.40
3023;DHT22;1521;53.584;9.938;2023-06-26T01:18:12;19.70;1.00
3023;DHT22;1521;53.584;9.938;2023-06-26T01:20:41;19.70;1.00
3023;DHT22;1521;53.584;9.938;2023-06-26T01:23:24;19.70;1.00
3023;DHT22;1521;53.584;9.938;2023-06-26T01:28:38;19.70;1.00
3023;DHT22;1521;53.584;9.938;2023-06-26T01:31:05;19.60;55.80
3023;DHT22;1521;53.584;9.938;2023-06-26T01:33:32;19.50;40.10
3023;DHT22;1521;53.584;9.938;2023-06-26T01:35:58;19.60;99.90
3023;DHT22;1521;53.584;9.938;2023-06-26T01:38:24;19.50;99.90
3023;DHT22;1521;53.584;9.938;2023-06-26T01:40:51;19.50;99.90
3023;DHT22;1521;53.584;9.938;2023-06-26T01:43:27;19.50;99.90
3023;DHT22;1521;53.584;9.938;2023-06-26T01:46:01;19.50;99.90
3023;DHT22;1521;53.584;9.938;2023-06-26T01:48:34;19.40;99.90
3023;DHT22;1521;53.584;9.938;2023-06-26T01:51:01;19.40;99.90
3023;DHT22;1521;53.584;9.938;2023-06-26T01:53:35;19.50;1.00
3023;DHT22;1521;53.584;9.938;2023-06-26T01:56:11;19.50;1.00
3023;DHT22;1521;53.584;9.938;2023-06-26T01:58:43;19.50;1.00
3023;DHT22;1521;53.584;9.938;2023-06-26T02:01:09;19.50;1.00
3023;DHT22;1521;53.584;9.938;2023-06-26T02:03:34;19.40;1.00
3023;DHT22;1521;53.584;9.938;2023-06-26T02:06:00;19.40;1.00
3023;DHT22;1521;53.584;9.938;2023-06-26T02:08:26;19.30;1.00
3023;DHT22;1521;53.584;9.938;2023-06-26T02:10:51;19.30;1.00
3023;DHT22;1521;53.584;9.938;2023-06-26T02:13:17;19.30;1.00
3023;DHT22;1521;53.584;9.938;2023-06-26T02:15:42;19.20;92.60
3023;DHT22;1521;53.584;9.938;2023-06-26T02:18:08;19.20;99.90
3023;DHT22;1521;53.584;9.938;2023-06-26T02:20:33;19.20;99.90
3023;DHT22;1521;53.584;9.938;2023-06-26T02:22:59;19.20;99.90
3023;DHT22;1521;53.584;9.938;2023-06-26T02:25:25;19.20;99.90
3023;DHT22;1521;53.584;9.938;2023-06-26T02:27:50;19.10;99.90
3023;DHT22;1521;53.584;9.938;2023-06-26T02:30:16;19.10;1.00
3023;DHT22;1521;53.584;9.938;2023-06-26T02:32:41;19.10;1.00
3023;DHT22;1521;53.584;9.938;2023-06-26T02:35:07;19.10;1.00
3023;DHT22;1521;53.584;9.938;2023-06-26T02:37:33;19.10;1.00
3023;DHT22;1521;53.584;9.938;2023-06-26T02:39:58;19.10;1.00
3023;DHT22;1521;53.584;9.938;2023-06-26T02:42:24;19.10;1.00
3023;DHT22;1521;53.584;9.938;2023-06-26T02:44:50;19.10;1.00
3023;DHT22;1521;53.584;9.938;2023-06-26T02:47:15;19.10;1.00
3023;DHT22;1521;53.584;9.938;2023-06-26T02:49:41;19.10;1.00
3023;DHT22;1521;53.584;9.938;2023-06-26T02:52:06;19.10;99.90
3023;DHT22;1521;53.584;9.938;2023-06-26T02:54:32;19.00;99.90
3023;DHT22;1521;53.584;9.938;2023-06-26T02:56:59;19.00;1.00
3023;DHT22;1521;53.584;9.938;2023-06-26T02:59:25;19.10;99.90
3023;DHT22;1521;53.584;9.938;2023-06-26T03:01:51;19.10;99.90
3023;DHT22;1521;53.584;9.938;2023-06-26T03:04:16;19.10;99.90
3023;DHT22;1521;53.584;9.938;2023-06-26T03:06:43;19.10;99.90
3023;DHT22;1521;53.584;9.938;2023-06-26T03:09:09;19.10;99.90
3023;DHT22;1521;53.584;9.938;2023-06-26T03:11:34;19.10;99.90
3023;DHT22;1521;53.584;9.938;2023-06-26T03:14:00;19.10;99.90
3023;DHT22;1521;53.584;9.938;2023-06-26T03:16:25;19.10;79.60
3023;DHT22;1521;53.584;9.938;2023-06-26T03:18:51;19.10;99.90
3023;DHT22;1521;53.584;9.938;2023-06-26T03:21:17;19.10;99.90
3023;DHT22;1521;53.584;9.938;2023-06-26T03:23:43;19.10;99.90
3023;DHT22;1521;53.584;9.938;2023-06-26T03:26:08;19.10;99.90
3023;DHT22;1521;53.584;9.938;2023-06-26T03:28:34;19.10;99.90
3023;DHT22;1521;53.584;9.938;2023-06-26T03:30:59;19.10;99.90
3023;DHT22;1521;53.584;9.938;2023-06-26T03:33:25;19.10;94.30
3023;DHT22;1521;53.584;9.938;2023-06-26T03:35:50;19.10;99.90
3023;DHT22;1521;53.584;9.938;2023-06-26T03:38:16;19.10;99.90
3023;DHT22;1521;53.584;9.938;2023-06-26T03:40:42;19.20;37.60
3023;DHT22;1521;53.584;9.938;2023-06-26T03:43:07;19.20;1.00
3023;DHT22;1521;53.584;9.938;2023-06-26T03:45:33;19.30;1.00
3023;DHT22;1521;53.584;9.938;2023-06-26T03:47:58;19.30;1.00
3023;DHT22;1521;53.584;9.938;2023-06-26T03:50:24;19.30;1.00
3023;DHT22;1521;53.584;9.938;2023-06-26T03:52:50;19.30;99.90
3023;DHT22;1521;53.584;9.938;2023-06-26T03:55:17;19.40;99.90
3023;DHT22;1521;53.584;9.938;2023-06-26T03:57:43;19.40;99.90
3023;DHT22;1521;53.584;9.938;2023-06-26T04:00:09;19.40;99.90
3023;DHT22;1521;53.584;9.938;2023-06-26T04:02:36;19.50;99.90
3023;DHT22;1521;53.584;9.938;2023-06-26T04:05:02;19.60;99.90
3023;DHT22;1521;53.584;9.938;2023-06-26T04:07:29;19.60;1.00
3023;DHT22;1521;53.584;9.938;2023-06-26T04:09:56;19.70;1.00
3023;DHT22;1521;53.584;9.938;2023-06-26T04:12:22;19.80;1.00
3023;DHT22;1521;53.584;9.938;2023-06-26T04:14:47;19.80;1.00
3023;DHT22;1521;53.584;9.938;2023-06-26T04:17:13;19.90;1.00
3023;DHT22;1521;53.584;9.938;2023-06-26T04:19:39;19.90;1.00
3023;DHT22;1521;53.584;9.938;2023-06-26T04:22:04;20.10;1.00
3023;DHT22;1521;53.584;9.938;2023-06-26T04:24:30;20.10;99.90
3023;DHT22;1521;53.584;9.938;2023-06-26T04:26:56;20.10;99.90
3023;DHT22;1521;53.584;9.938;2023-06-26T04:29:23;20.30;99.90
3023;DHT22;1521;53.584;9.938;2023-06-26T04:31:51;20.30;99.90
3023;DHT22;1521;53.584;9.938;2023-06-26T04:34:17;20.40;99.90
3023;DHT22;1521;53.584;9.938;2023-06-26T04:36:42;20.50;99.90
3023;DHT22;1521;53.584;9.938;2023-06-26T04:39:11;20.60;99.90
3023;DHT22;1521;53.584;9.938;2023-06-26T04:41:37;20.80;99.90
3023;DHT22;1521;53.584;9.938;2023-06-26T04:44:03;20.90;99.90
3023;DHT22;1521;53.584;9.938;2023-06-26T04:46:28;21.10;69.20
3023;DHT22;1521;53.584;9.938;2023-06-26T04:48:54;21.20;18.20
3023;DHT22;1521;53.584;9.938;2023-06-26T04:51:19;21.30;8.20
3023;DHT22;1521;53.584;9.938;2023-06-26T04:53:46;21.40;1.00
3023;DHT22;1521;53.584;9.938;2023-06-26T04:56:11;21.60;1.00
3023;DHT22;1521;53.584;9.938;2023-06-26T04:58:38;21.60;1.00
3023;DHT22;1521;53.584;9.938;2023-06-26T05:01:03;21.80;1.00
3023;DHT22;1521;53.584;9.938;2023-06-26T05:03:32;21.90;1.00
3023;DHT22;1521;53.584;9.938;2023-06-26T05:05:58;22.00;1.00
3023;DHT22;1521;53.584;9.938;2023-06-26T05:08:24;22.00;1.00
3023;DHT22;1521;53.584;9.938;2023-06-26T05:10:52;22.20;1.00
3023;DHT22;1521;53.584;9.938;2023-06-26T05:13:18;22.20;1.00
3023;DHT22;1521;53.584;9.938;2023-06-26T05:15:46;22.30;1.00
3023;DHT22;1521;53.584;9.938;2023-06-26T05:18:12;22.40;1.00
3023;DHT22;1521;53.584;9.938;2023-06-26T05:20:38;22.50;1.00
3023;DHT22;1521;53.584;9.938;2023-06-26T05:23:04;22.60;1.00
3023;DHT22;1521;53.584;9.938;2023-06-26T05:25:31;22.60;1.00
3023;DHT22;1521;53.584;9.938;2023-06-26T05:27:57;22.70;1.00
3023;DHT22;1521;53.584;9.938;2023-06-26T05:30:24;22.90;1.00
3023;DHT22;1521;53.584;9.938;2023-06-26T05:32:54;23.00;1.00
3023;DHT22;1521;53.584;9.938;2023-06-26T05:35:20;23.10;1.00
3023;DHT22;1521;53.584;9.938;2023-06-26T05:37:50;23.20;1.00
3023;DHT22;1521;53.584;9.938;2023-06-26T05:40:18;23.30;1.00
3023;DHT22;1521;53.584;9.938;2023-06-26T05:42:45;23.40;1.00
3023;DHT22;1521;53.584;9.938;2023-06-26T05:45:11;23.50;1.00
3023;DHT22;1521;53.584;9.938;2023-06-26T05:47:37;23.60;1.00
3023;DHT22;1521;53.584;9.938;2023-06-26T05:50:03;23.70;1.00
3023;DHT22;1521;53.584;9.938;2023-06-26T05:52:29;23.70;1.00
3023;DHT22;1521;53.584;9.938;2023-06-26T05:54:56;23.80;1.00
3023;DHT22;1521;53.584;9.938;2023-06-26T05:57:28;23.90;1.00
3023;DHT22;1521;53.584;9.938;2023-06-26T05:59:55;24.10;1.00
3023;DHT22;1521;53.584;9.938;2023-06-26T06:02:20;24.20;1.00
3023;DHT22;1521;53.584;9.938;2023-06-26T06:04:46;24.30;1.00
3023;DHT22;1521;53.584;9.938;2023-06-26T06:07:12;24.40;1.00
3023;DHT22;1521;53.584;9.938;2023-06-26T06:09:38;24.70;1.00
3023;DHT22;1521;53.584;9.938;2023-06-26T06:12:07;24.70;1.00
3023;DHT22;1521;53.584;9.938;2023-06-26T06:14:34;24.70;1.00
3023;DHT22;1521;53.584;9.938;2023-06-26T06:17:00;24.70;1.00
3023;DHT22;1521;53.584;9.938;2023-06-26T06:19:26;24.80;1.00
3023;DHT22;1521;53.584;9.938;2023-06-26T06:21:51;25.00;1.00
3023;DHT22;1521;53.584;9.938;2023-06-26T06:24:17;25.10;1.00
3023;DHT22;1521;53.584;9.938;2023-06-26T06:26:43;25.30;1.00
3023;DHT22;1521;53.584;9.938;2023-06-26T06:29:08;25.60;1.00
3023;DHT22;1521;53.584;9.938;2023-06-26T06:31:34;25.80;1.00
3023;DHT22;1521;53.584;9.938;2023-06-26T06:34:00;25.80;1.00
3023;DHT22;1521;53.584;9.938;2023-06-26T06:36:25;25.80;1.00
3023;DHT22;1521;53.584;9.938;2023-06-26T06:38:51;25.90;1.00
3023;DHT22;1521;53.584;9.938;2023-06-26T06:41:17;26.10;1.00
3023;DHT22;1521;53.584;9.938;2023-06-26T06:43:43;26.30;1.00
3023;DHT22;1521;53.584;9.938;2023-06-26T06:46:08;26.50;1.00
3023;DHT22;1521;53.584;9.938;2023-06-26T06:48:34;26.60;1.00
3023;DHT22;1521;53.584;9.938;2023-06-26T06:51:00;26.90;1.00
3023;DHT22;1521;53.584;9.938;2023-06-26T06:53:26;27.00;1.00
3023;DHT22;1521;53.584;9.938;2023-06-26T06:55:51;27.10;1.00
3023;DHT22;1521;53.584;9.938;2023-06-26T06:58:17;27.40;1.00
3023;DHT22;1521;53.584;9.938;2023-06-26T07:00:44;27.60;1.00
3023;DHT22;1521;53.584;9.938;2023-06-26T07:03:10;27.90;1.00
3023;DHT22;1521;53.584;9.938;2023-06-26T07:05:36;28.00;1.00
3023;DHT22;1521;53.584;9.938;2023-06-26T07:08:01;27.90;1.00
3023;DHT22;1521;53.584;9.938;2023-06-26T07:10:28;28.00;1.00
3023;DHT22;1521;53.584;9.938;2023-06-26T07:12:54;28.00;1.00
3023;DHT22;1521;53.584;9.938;2023-06-26T07:15:19;28.10;1.00
3023;DHT22;1521;53.584;9.938;2023-06-26T07:17:45;28.10;1.00
3023;DHT22;1521;53.584;9.938;2023-06-26T07:20:10;28.40;1.00
3023;DHT22;1521;53.584;9.938;2023-06-26T07:22:41;28.50;1.00
3023;DHT22;1521;53.584;9.938;2023-06-26T07:25:07;28.40;1.00
3023;DHT22;1521;53.584;9.938;2023-06-26T07:27:39;28.60;1.00
3023;DHT22;1521;53.584;9.938;2023-06-26T07:30:05;28.80;1.00
3023;DHT22;1521;53.584;9.938;2023-06-26T07:32:31;29.00;1.00
3023;DHT22;1521;53.584;9.938;2023-06-26T07:34:57;29.30;1.00
3023;DHT22;1521;53.584;9.938;2023-06-26T07:37:22;29.50;1.00
3023;DHT22;1521;53.584;9.938;2023-06-26T07:39:49;29.60;1.00
3023;DHT22;1521;53.584;9.938;2023-06-26T07:42:14;29.80;1.00
3023;DHT22;1521;53.584;9.938;2023-06-26T07:44:42;29.80;1.00
3023;DHT22;1521;53.584;9.938;2023-06-26T07:47:07;29.90;1.00
3023;DHT22;1521;53.584;9.938;2023-06-26T07:49:33;30.10;1.00
3023;DHT22;1521;53.584;9.938;2023-06-26T07:51:59;30.30;1.00
3023;DHT22;1521;53.584;9.938;2023-06-26T07:54:24;30.30;1.00
3023;DHT22;1521;53.584;9.938;2023-06-26T07:59:23;30.60;99.90
3023;DHT22;1521;53.584;9.938;2023-06-26T08:01:51;30.40;99.90
3023;DHT22;1521;53.584;9.938;2023-06-26T08:04:18;30.50;99.90
3023;DHT22;1521;53.584;9.938;2023-06-26T08:06:45;30.50;99.90
3023;DHT22;1521;53.584;9.938;2023-06-26T08:09:11;30.40;99.90
3023;DHT22;1521;53.584;9.938;2023-06-26T08:11:38;30.30;99.90
3023;DHT22;1521;53.584;9.938;2023-06-26T08:14:03;30.40;99.90
3023;DHT22;1521;53.584;9.938;2023-06-26T08:16:29;30.20;99.90
3023;DHT22;1521;53.584;9.938;2023-06-26T08:18:54;30.10;99.90
3023;DHT22;1521;53.584;9.938;2023-06-26T08:21:20;30.10;99.90
3023;DHT22;1521;53.584;9.938;2023-06-26T08:23:46;30.10;99.90
3023;DHT22;1521;53.584;9.938;2023-06-26T08:26:11;30.00;99.90
3023;DHT22;1521;53.584;9.938;2023-06-26T08:28:37;30.30;99.90
3023;DHT22;1521;53.584;9.938;2023-06-26T08:31:02;30.80;99.90
3023;DHT22;1521;53.584;9.938;2023-06-26T08:33:28;31.00;99.90
3023;DHT22;1521;53.584;9.938;2023-06-26T08:35:53;31.20;99.90
3023;DHT22;1521;53.584;9.938;2023-06-26T08:38:19;31.30;99.90
3023;DHT22;1521;53.584;9.938;2023-06-26T08:40:46;31.20;99.90
3023;DHT22;1521;53.584;9.938;2023-06-26T08:43:12;31.20;99.90
3023;DHT22;1521;53.584;9.938;2023-06-26T08:45:38;30.60;99.90
3023;DHT22;1521;53.584;9.938;2023-06-26T08:48:08;30.20;99.90
3023;DHT22;1521;53.584;9.938;2023-06-26T08:50:35;29.70;99.90
3023;DHT22;1521;53.584;9.938;2023-06-26T08:55:43;29.30;99.90
3023;DHT22;1521;53.584;9.938;2023-06-26T08:58:09;29.40;99.90
3023;DHT22;1521;53.584;9.938;2023-06-26T09:00:35;29.50;99.90
3023;DHT22;1521;53.584;9.938;2023-06-26T09:03:03;29.50;99.90
3023;DHT22;1521;53.584;9.938;2023-06-26T09:05:29;29.80;99.90
3023;DHT22;1521;53.584;9.938;2023-06-26T09:07:57;30.00;99.90
3023;DHT22;1521;53.584;9.938;2023-06-26T09:10:22;30.20;99.90
3023;DHT22;1521;53.584;9.938;2023-06-26T09:12:48;30.50;99.90
3023;DHT22;1521;53.584;9.938;2023-06-26T09:15:15;31.00;99.90
3023;DHT22;1521;53.584;9.938;2023-06-26T09:17:42;31.30;99.90
3023;DHT22;1521;53.584;9.938;2023-06-26T09:20:08;31.10;99.90
3023;DHT22;1521;53.584;9.938;2023-06-26T09:22:40;30.90;99.90
3023;DHT22;1521;53.584;9.938;2023-06-26T09:25:06;31.00;99.90
3023;DHT22;1521;53.584;9.938;2023-06-26T09:27:33;30.70;99.90
3023;DHT22;1521;53.584;9.938;2023-06-26T09:29:59;30.70;99.90
3023;DHT22;1521;53.584;9.938;2023-06-26T09:32:25;30.10;99.90
3023;DHT22;1521;53.584;9.938;2023-06-26T09:34:53;29.20;99.90
3023;DHT22;1521;53.584;9.938;2023-06-26T09:37:19;28.40;99.90
3023;DHT22;1521;53.584;9.938;2023-06-26T09:39:45;27.70;99.90
3023;DHT22;1521;53.584;9.938;2023-06-26T09:42:13;27.50;99.90
3023;DHT22;1521;53.584;9.938;2023-06-26T09:44:47;27.50;99.90
3023;DHT22;1521;53.584;9.938;2023-06-26T09:47:16;27.60;99.90
3023;DHT22;1521;53.584;9.938;2023-06-26T09:49:42;27.60;99.90
3023;DHT22;1521;53.584;9.938;2023-06-26T09:52:08;27.30;99.90
3023;DHT22;1521;53.584;9.938;2023-06-26T09:54:34;26.80;99.90
3023;DHT22;1521;53.584;9.938;2023-06-26T09:57:07;26.20;99.90
3023;DHT22;1521;53.584;9.938;2023-06-26T09:59:33;25.80;1.00
3023;DHT22;1521;53.584;9.938;2023-06-26T10:02:00;25.40;99.90
3023;DHT22;1521;53.584;9.938;2023-06-26T10:04:26;25.20;1.00
3023;DHT22;1521;53.584;9.938;2023-06-26T10:06:55;24.90;1.00
3023;DHT22;1521;53.584;9.938;2023-06-26T10:09:22;24.70;1.00
3023;DHT22;1521;53.584;9.938;2023-06-26T10:12:03;24.40;1.00
3023;DHT22;1521;53.584;9.938;2023-06-26T10:14:35;24.30;1.00
3023;DHT22;1521;53.584;9.938;2023-06-26T10:17:04;24.00;1.00
3023;DHT22;1521;53.584;9.938;2023-06-26T10:19:32;23.80;1.00
3023;DHT22;1521;53.584;9.938;2023-06-26T10:21:58;23.20;1.00
3023;DHT22;1521;53.584;9.938;2023-06-26T10:24:26;22.80;1.00
3023;DHT22;1521;53.584;9.938;2023-06-26T10:27:00;22.20;99.90
3023;DHT22;1521;53.584;9.938;2023-06-26T10:29:27;21.80;1.00
3023;DHT22;1521;53.584;9.938;2023-06-26T10:31:56;21.50;99.90
3023;DHT22;1521;53.584;9.938;2023-06-26T10:34:22;21.20;1.00
3023;DHT22;1521;53.584;9.938;2023-06-26T10:37:01;20.90;99.90
3023;DHT22;1521;53.584;9.938;2023-06-26T10:39:27;20.80;99.90
3023;DHT22;1521;53.584;9.938;2023-06-26T10:42:08;20.70;61.70
3023;DHT22;1521;53.584;9.938;2023-06-26T10:44:46;20.60;1.00
3023;DHT22;1521;53.584;9.938;2023-06-26T10:47:32;20.60;1.00
3023;DHT22;1521;53.584;9.938;2023-06-26T10:52:44;20.60;18.80
3023;DHT22;1521;53.584;9.938;2023-06-26T10:55:10;20.60;1.00
3023;DHT22;1521;53.584;9.938;2023-06-26T10:57:36;20.80;99.90
3023;DHT22;1521;53.584;9.938;2023-06-26T11:00:09;21.00;1.00
3023;DHT22;1521;53.584;9.938;2023-06-26T11:02:52;21.60;78.60
3023;DHT22;1521;53.584;9.938;2023-06-26T11:05:28;22.10;1.00
3023;DHT22;1521;53.584;9.938;2023-06-26T11:10:29;24.30;99.90
3023;DHT22;1521;53.584;9.938;2023-06-26T11:12:54;24.50;99.90
3023;DHT22;1521;53.584;9.938;2023-06-26T11:15:25;24.80;99.90
3023;DHT22;1521;53.584;9.938;2023-06-26T11:17:51;24.30;1.00
3023;DHT22;1521;53.584;9.938;2023-06-26T11:20:17;23.60;1.00
3023;DHT22;1521;53.584;9.938;2023-06-26T11:22:43;23.40;7.60
3023;DHT22;1521;53.584;9.938;2023-06-26T11:25:10;23.60;19.10
3023;DHT22;1521;53.584;9.938;2023-06-26T11:27:43;23.80;12.60
3023;DHT22;1521;53.584;9.938;2023-06-26T11:30:11;23.80;1.00
3023;DHT22;1521;53.584;9.938;2023-06-26T11:32:47;23.80;1.00
3023;DHT22;1521;53.584;9.938;2023-06-26T11:35:13;23.70;1.00
3023;DHT22;1521;53.584;9.938;2023-06-26T11:37:38;23.50;1.00
3023;DHT22;1521;53.584;9.938;2023-06-26T11:40:17;23.10;1.00
3023;DHT22;1521;53.584;9.938;2023-06-26T11:42:44;23.80;1.00
3023;DHT22;1521;53.584;9.938;2023-06-26T11:45:10;24.60;1.00
3023;DHT22;1521;53.584;9.938;2023-06-26T11:47:39;25.20;1.00
3023;DHT22;1521;53.584;9.938;2023-06-26T11:50:05;25.20;1.00
3023;DHT22;1521;53.584;9.938;2023-06-26T11:52:32;25.30;1.00
3023;DHT22;1521;53.584;9.938;2023-06-26T11:54:58;24.90;1.00
3023;DHT22;1521;53.584;9.938;2023-06-26T11:57:24;24.70;1.00
3023;DHT22;1521;53.584;9.938;2023-06-26T11:59:50;24.30;1.00
3023;DHT22;1521;53.584;9.938;2023-06-26T12:02:17;23.70;1.00
3023;DHT22;1521;53.584;9.938;2023-06-26T12:04:43;23.40;1.00
3023;DHT22;1521;53.584;9.938;2023-06-26T12:07:10;23.10;1.00
3023;DHT22;1521;53.584;9.938;2023-06-26T12:09:41;23.20;1.00
3023;DHT22;1521;53.584;9.938;2023-06-26T12:12:08;23.40;1.00
3023;DHT22;1521;53.584;9.938;2023-06-26T12:14:34;23.30;1.00
3023;DHT22;1521;53.584;9.938;2023-06-26T12:17:13;23.80;1.00
3023;DHT22;1521;53.584;9.938;2023-06-26T12:19:43;24.50;1.00
3023;DHT22;1521;53.584;9.938;2023-06-26T12:22:09;24.80;1.00
3023;DHT22;1521;53.584;9.938;2023-06-26T12:24:37;24.90;1.00
3023;DHT22;1521;53.584;9.938;2023-06-26T12:27:08;24.90;1.00
3023;DHT22;1521;53.584;9.938;2023-06-26T12:29:34;25.10;1.00
3023;DHT22;1521;53.584;9.938;2023-06-26T12:32:00;25.60;1.00
3023;DHT22;1521;53.584;9.938;2023-06-26T12:34:37;26.20;1.00
3023;DHT22;1521;53.584;9.938;2023-06-26T12:37:08;27.20;1.00
3023;DHT22;1521;53.584;9.938;2023-06-26T12:39:53;27.80;1.00
3023;DHT22;1521;53.584;9.938;2023-06-26T12:42:23;27.70;1.00
3023;DHT22;1521;53.584;9.938;2023-06-26T12:44:52;27.10;1.00
3023;DHT22;1521;53.584;9.938;2023-06-26T12:47:26;26.10;1.00
3023;DHT22;1521;53.584;9.938;2023-06-26T12:49:52;26.10;1.00
3023;DHT22;1521;53.584;9.938;2023-06-26T12:52:19;25.60;1.00
3023;DHT22;1521;53.584;9.938;2023-06-26T12:54:46;25.80;1.00
3023;DHT22;1521;53.584;9.938;2023-06-26T12:57:13;26.10;1.00
3023;DHT22;1521;53.584;9.938;2023-06-26T12:59:39;25.90;1.00
3023;DHT22;1521;53.584;9.938;2023-06-26T13:02:05;26.00;1.00
3023;DHT22;1521;53.584;9.938;2023-06-26T13:04:32;26.10;1.00
3023;DHT22;1521;53.584;9.938;2023-06-26T13:06:57;26.00;1.00
3023;DHT22;1521;53.584;9.938;2023-06-26T13:09:23;26.10;1.00
3023;DHT22;1521;53.584;9.938;2023-06-26T13:11:53;25.90;1.00
3023;DHT22;1521;53.584;9.938;2023-06-26T13:14:19;25.70;1.00
3023;DHT22;1521;53.584;9.938;2023-06-26T13:16:45;25.80;1.00
3023;DHT22;1521;53.584;9.938;2023-06-26T13:19:10;26.40;1.00
3023;DHT22;1521;53.584;9.938;2023-06-26T13:21:36;27.00;1.00
3023;DHT22;1521;53.584;9.938;2023-06-26T13:24:03;26.90;1.00
3023;DHT22;1521;53.584;9.938;2023-06-26T13:26:29;26.90;99.90
3023;DHT22;1521;53.584;9.938;2023-06-26T13:28:55;26.30;99.90
3023;DHT22;1521;53.584;9.938;2023-06-26T13:31:21;25.90;99.90
3023;DHT22;1521;53.584;9.938;2023-06-26T13:33:47;25.40;99.90
3023;DHT22;1521;53.584;9.938;2023-06-26T13:36:18;24.70;99.90
3023;DHT22;1521;53.584;9.938;2023-06-26T13:38:44;24.60;1.00
3023;DHT22;1521;53.584;9.938;2023-06-26T13:41:10;24.50;1.00
3023;DHT22;1521;53.584;9.938;2023-06-26T13:43:35;24.70;1.00
3023;DHT22;1521;53.584;9.938;2023-06-26T13:46:01;25.00;1.00
3023;DHT22;1521;53.584;9.938;2023-06-26T13:48:28;25.20;1.00
3023;DHT22;1521;53.584;9.938;2023-06-26T13:50:54;25.10;1.00
3023;DHT22;1521;53.584;9.938;2023-06-26T13:53:20;24.80;1.00
3023;DHT22;1521;53.584;9.938;2023-06-26T13:55:46;24.40;1.00
3023;DHT22;1521;53.584;9.938;2023-06-26T13:58:11;24.20;1.00
3023;DHT22;1521;53.584;9.938;2023-06-26T14:00:38;24.10;1.00
3023;DHT22;1521;53.584;9.938;2023-06-26T14:03:05;24.40;1.00
3023;DHT22;1521;53.584;9.938;2023-06-26T14:05:32;24.90;1.00
3023;DHT22;1521;53.584;9.938;2023-06-26T14:07:58;24.90;1.00
3023;DHT22;1521;53.584;9.938;2023-06-26T14:10:24;24.70;1.00
3023;DHT22;1521;53.584;9.938;2023-06-26T14:12:50;25.00;1.00
3023;DHT22;1521;53.584;9.938;2023-06-26T14:15:15;25.00;1.00
3023;DHT22;1521;53.584;9.938;2023-06-26T14:17:41;24.70;1.00
3023;DHT22;1521;53.584;9.938;2023-06-26T14:20:10;24.30;1.00
3023;DHT22;1521;53.584;9.938;2023-06-26T14:22:41;24.00;1.00
3023;DHT22;1521;53.584;9.938;2023-06-26T14:25:08;24.00;1.00
3023;DHT22;1521;53.584;9.938;2023-06-26T14:27:34;24.10;1.00
3023;DHT22;1521;53.584;9.938;2023-06-26T14:29:59;24.30;1.00
3023;DHT22;1521;53.584;9.938;2023-06-26T14:32:26;24.70;1.00
3023;DHT22;1521;53.584;9.938;2023-06-26T14:34:51;25.20;1.00
3023;DHT22;1521;53.584;9.938;2023-06-26T14:37:17;25.70;1.00
3023;DHT22;1521;53.584;9.938;2023-06-26T14:39:44;26.30;99.90
3023;DHT22;1521;53.584;9.938;2023-06-26T14:42:10;26.30;99.90
3023;DHT22;1521;53.584;9.938;2023-06-26T14:44:35;26.10;99.90
3023;DHT22;1521;53.584;9.938;2023-06-26T14:47:01;25.40;99.90
3023;DHT22;1521;53.584;9.938;2023-06-26T14:49:27;24.70;99.90
3023;DHT22;1521;53.584;9.938;2023-06-26T14:51:52;24.40;99.90
3023;DHT22;1521;53.584;9.938;2023-06-26T14:54:18;24.50;99.90
3023;DHT22;1521;53.584;9.938;2023-06-26T14:56:43;24.50;99.90
3023;DHT22;1521;53.584;9.938;2023-06-26T14:59:11;24.10;99.90
3023;DHT22;1521;53.584;9.938;2023-06-26T15:01:36;24.20;99.90
3023;DHT22;1521;53.584;9.938;2023-06-26T15:04:02;24.40;99.90
3023;DHT22;1521;53.584;9.938;2023-06-26T15:06:28;23.90;99.90
3023;DHT22;1521;53.584;9.938;2023-06-26T15:08:53;23.40;99.90
3023;DHT22;1521;53.584;9.938;2023-06-26T15:11:19;23.20;99.90
3023;DHT22;1521;53.584;9.938;2023-06-26T15:13:44;23.50;99.90
3023;DHT22;1521;53.584;9.938;2023-06-26T15:16:10;24.00;1.00
3023;DHT22;1521;53.584;9.938;2023-06-26T15:18:36;24.40;1.00
3023;DHT22;1521;53.584;9.938;2023-06-26T15:21:01;24.50;1.00
3023;DHT22;1521;53.584;9.938;2023-06-26T15:23:30;24.60;99.90
3023;DHT22;1521;53.584;9.938;2023-06-26T15:25:55;24.70;99.90
3023;DHT22;1521;53.584;9.938;2023-06-26T15:28:21;24.50;99.90
3023;DHT22;1521;53.584;9.938;2023-06-26T15:30:47;24.60;99.90
3023;DHT22;1521;53.584;9.938;2023-06-26T15:33:13;24.10;99.90
3023;DHT22;1521;53.584;9.938;2023-06-26T15:35:38;23.60;99.90
3023;DHT22;1521;53.584;9.938;2023-06-26T15:38:04;23.20;99.90
3023;DHT22;1521;53.584;9.938;2023-06-26T15:40:30;23.00;99.90
3023;DHT22;1521;53.584;9.938;2023-06-26T15:42:56;22.80;99.90
3023;DHT22;1521;53.584;9.938;2023-06-26T15:45:22;22.80;99.90
3023;DHT22;1521;53.584;9.938;2023-06-26T15:47:49;22.50;99.90
3023;DHT22;1521;53.584;9.938;2023-06-26T15:50:16;22.30;99.90
3023;DHT22;1521;53.584;9.938;2023-06-26T15:52:41;22.20;99.90
3023;DHT22;1521;53.584;9.938;2023-06-26T15:55:07;22.00;99.90
3023;DHT22;1521;53.584;9.938;2023-06-26T15:57:35;22.00;99.90
3023;DHT22;1521;53.584;9.938;2023-06-26T16:00:00;22.10;1.00
3023;DHT22;1521;53.584;9.938;2023-06-26T16:02:26;22.30;1.00
3023;DHT22;1521;53.584;9.938;2023-06-26T16:04:52;22.50;1.00
3023;DHT22;1521;53.584;9.938;2023-06-26T16:07:17;22.50;1.00
3023;DHT22;1521;53.584;9.938;2023-06-26T16:09:43;22.60;1.00
3023;DHT22;1521;53.584;9.938;2023-06-26T16:12:09;22.40;1.00
3023;DHT22;1521;53.584;9.938;2023-06-26T16:14:34;22.50;1.00
3023;DHT22;1521;53.584;9.938;2023-06-26T16:17:00;22.40;1.00
3023;DHT22;1521;53.584;9.938;2023-06-26T16:19:26;22.40;1.00
3023;DHT22;1521;53.584;9.938;2023-06-26T16:21:51;22.30;1.00